createdAt,value
2022-09-14T00:01:56.158Z,98329.09
2022-09-14T00:04:24.895Z,98331.78
2022-09-14T00:06:57.111Z,98330.63
2022-09-14T00:09:27.827Z,98334.97
2022-09-14T00:11:56.511Z,98337.94
2022-09-14T00:14:24.784Z,98337.66
2022-09-14T00:16:53.298Z,98329.91
2022-09-14T00:19:24.620Z,98323.50
2022-09-14T00:22:00.884Z,98319.13
2022-09-14T00:24:31.494Z,98316.44
2022-09-14T00:27:00.000Z,98306.53
2022-09-14T00:29:28.116Z,98303.69
2022-09-14T00:31:58.919Z,98312.75
2022-09-14T00:34:27.140Z,98300.81
2022-09-14T00:36:57.305Z,98294.78
2022-09-14T00:39:28.242Z,98294.28
2022-09-14T00:41:56.638Z,98291.97
2022-09-14T00:45:10.428Z,98287.28
2022-09-14T00:47:38.867Z,98278.72
2022-09-14T00:50:09.582Z,98277.22
2022-09-14T00:52:44.053Z,98275.50
2022-09-14T00:55:15.126Z,98267.94
2022-09-14T00:57:46.602Z,98262.91
2022-09-14T01:00:17.807Z,98266.97
2022-09-14T01:02:46.708Z,98267.28
2022-09-14T01:05:15.236Z,98252.22
2022-09-14T01:11:06.540Z,98231.91
2022-09-14T01:13:48.544Z,98238.59
2022-09-14T01:16:25.483Z,98218.69
2022-09-14T01:19:01.419Z,98243.41
2022-09-14T01:21:33.243Z,98254.13
2022-09-14T01:24:08.670Z,98277.47
2022-09-14T01:27:32.241Z,98269.91
2022-09-14T01:30:24.529Z,98264.19
2022-09-14T01:32:57.549Z,98271.72
2022-09-14T01:35:31.015Z,98263.88
2022-09-14T01:38:04.507Z,98270.25
2022-09-14T01:40:37.894Z,98271.75
2022-09-14T01:43:11.840Z,98280.84
2022-09-14T01:45:48.848Z,98291.72
2022-09-14T01:48:21.479Z,98305.13
2022-09-14T01:50:55.037Z,98302.94
2022-09-14T01:53:28.831Z,98302.63
2022-09-14T01:56:02.841Z,98305.31
2022-09-14T01:58:38.558Z,98296.75
2022-09-14T02:01:11.780Z,98301.09
2022-09-14T02:03:45.369Z,98294.59
2022-09-14T02:06:19.231Z,98296.44
2022-09-14T02:08:47.732Z,98294.06
2022-09-14T02:11:15.853Z,98291.72
2022-09-14T02:13:44.158Z,98290.22
2022-09-14T02:16:14.854Z,98274.31
2022-09-14T02:18:43.935Z,98275.81
2022-09-14T02:21:16.923Z,98263.78
2022-09-14T02:23:45.980Z,98265.75
2022-09-14T02:26:14.714Z,98271.66
2022-09-14T02:28:43.346Z,98272.97
2022-09-14T02:31:23.673Z,98273.63
2022-09-14T02:34:02.890Z,98275.66
2022-09-14T02:36:41.595Z,98267.78
2022-09-14T02:39:23.015Z,98259.22
2022-09-14T02:41:59.431Z,98253.47
2022-09-14T02:44:39.660Z,98243.09
2022-09-14T02:47:19.008Z,98242.41
2022-09-14T02:49:59.487Z,98237.38
2022-09-14T02:52:35.481Z,98238.91
2022-09-14T02:55:12.039Z,98228.31
2022-09-14T02:58:01.917Z,98224.63
2022-09-14T03:00:31.962Z,98220.28
2022-09-14T03:03:01.986Z,98215.94
2022-09-14T03:05:30.980Z,98211.75
2022-09-14T03:08:02.238Z,98211.19
2022-09-14T03:10:32.609Z,98202.78
2022-09-14T03:13:01.246Z,98205.47
2022-09-14T03:15:34.506Z,98208.84
2022-09-14T03:18:04.538Z,98208.22
2022-09-14T03:20:34.655Z,98196.47
2022-09-14T03:23:03.919Z,98210.50
2022-09-14T03:25:33.219Z,98202.28
2022-09-14T03:28:02.108Z,98199.97
2022-09-14T03:30:31.363Z,98201.97
2022-09-14T03:33:03.773Z,98194.94
2022-09-14T03:35:36.033Z,98187.44
2022-09-14T03:38:05.067Z,98199.84
2022-09-14T03:40:33.860Z,98195.66
2022-09-14T03:43:02.054Z,98191.59
2022-09-14T03:45:30.386Z,98182.56
2022-09-14T03:47:58.642Z,98186.78
2022-09-14T03:50:28.588Z,98172.69
2022-09-14T03:53:00.207Z,98185.75
2022-09-14T03:55:28.733Z,98185.28
2022-09-14T03:57:57.859Z,98177.56
2022-09-14T04:00:26.006Z,98176.91
2022-09-14T04:02:54.427Z,98180.78
2022-09-14T04:05:23.252Z,98176.63
2022-09-14T04:07:51.516Z,98178.63
2022-09-14T04:10:21.688Z,98177.13
2022-09-14T04:12:49.988Z,98173.94
2022-09-14T04:15:20.774Z,98178.31
2022-09-14T04:17:50.212Z,98177.13
2022-09-14T04:20:19.967Z,98182.81
2022-09-14T04:22:51.638Z,98178.94
2022-09-14T04:25:23.242Z,98183.44
2022-09-14T04:28:16.643Z,98185.13
2022-09-14T04:30:43.578Z,98176.91
2022-09-14T04:33:12.183Z,98175.25
2022-09-14T04:35:42.919Z,98177.94
2022-09-14T04:38:11.039Z,98180.47
2022-09-14T04:40:43.914Z,98176.63
2022-09-14T04:43:11.990Z,98181.81
2022-09-14T04:45:41.011Z,98180.81
2022-09-14T04:48:09.088Z,98173.13
2022-09-14T04:50:37.587Z,98176.97
2022-09-14T04:53:06.099Z,98173.47
2022-09-14T04:55:34.549Z,98175.97
2022-09-14T04:58:04.447Z,98176.63
2022-09-14T05:00:36.577Z,98174.59
2022-09-14T05:03:06.886Z,98171.72
2022-09-14T05:05:40.046Z,98162.63
2022-09-14T05:08:11.307Z,98160.44
2022-09-14T05:10:39.744Z,98164.84
2022-09-14T05:13:09.317Z,98154.22
2022-09-14T05:15:37.890Z,98150.06
2022-09-14T05:18:06.360Z,98150.88
2022-09-14T05:20:36.730Z,98148.59
2022-09-14T05:23:06.027Z,98136.72
2022-09-14T05:25:34.236Z,98142.09
2022-09-14T05:28:02.627Z,98146.59
2022-09-14T05:30:32.419Z,98134.84
2022-09-14T05:33:02.577Z,98143.59
2022-09-14T05:35:30.714Z,98146.97
2022-09-14T05:37:59.103Z,98143.25
2022-09-14T05:40:27.542Z,98142.22
2022-09-14T05:42:55.764Z,98141.38
2022-09-14T05:45:23.888Z,98133.38
2022-09-14T05:47:53.684Z,98141.50
2022-09-14T05:50:23.337Z,98134.41
2022-09-14T05:52:51.800Z,98140.28
2022-09-14T05:55:20.145Z,98137.25
2022-09-14T05:57:50.623Z,98138.09
2022-09-14T06:00:21.838Z,98132.72
2022-09-14T06:02:51.391Z,98139.78
2022-09-14T06:05:21.770Z,98145.66
2022-09-14T06:07:52.912Z,98144.75
2022-09-14T06:10:21.946Z,98147.59
2022-09-14T06:12:54.860Z,98142.25
2022-09-14T06:15:24.790Z,98142.56
2022-09-14T06:17:54.281Z,98137.03
2022-09-14T06:20:26.991Z,98135.66
2022-09-14T06:22:57.337Z,98142.88
2022-09-14T06:25:28.296Z,98141.59
2022-09-14T06:27:56.516Z,98138.22
2022-09-14T06:30:24.981Z,98139.28
2022-09-14T06:32:53.090Z,98136.56
2022-09-14T06:35:21.269Z,98135.94
2022-09-14T06:37:50.930Z,98129.69
2022-09-14T06:40:19.287Z,98136.59
2022-09-14T06:42:47.689Z,98137.88
2022-09-14T06:45:15.958Z,98137.22
2022-09-14T06:47:44.464Z,98133.53
2022-09-14T06:50:12.547Z,98135.03
2022-09-14T06:52:40.889Z,98127.78
2022-09-14T06:55:11.480Z,98132.72
2022-09-14T06:57:42.885Z,98128.00
2022-09-14T07:00:13.108Z,98132.72
2022-09-14T07:02:42.069Z,98143.59
2022-09-14T07:05:10.948Z,98138.88
2022-09-14T07:07:39.735Z,98146.31
2022-09-14T07:10:08.301Z,98137.81
2022-09-14T07:12:38.509Z,98147.63
2022-09-14T07:15:09.448Z,98142.44
2022-09-14T07:17:37.991Z,98139.06
2022-09-14T07:20:07.559Z,98147.16
2022-09-14T07:22:36.540Z,98144.75
2022-09-14T07:25:05.431Z,98154.63
2022-09-14T07:27:34.930Z,98151.13
2022-09-14T07:30:05.006Z,98148.41
2022-09-14T07:32:33.081Z,98152.97
2022-09-14T07:35:03.408Z,98145.25
2022-09-14T07:37:31.586Z,98147.31
2022-09-14T07:40:01.588Z,98146.47
2022-09-14T07:42:30.124Z,98145.94
2022-09-14T07:44:58.321Z,98142.88
2022-09-14T07:47:28.221Z,98149.59
2022-09-14T07:49:56.604Z,98141.38
2022-09-14T07:52:24.873Z,98139.88
2022-09-14T07:54:56.411Z,98138.97
2022-09-14T07:57:45.459Z,98134.16
2022-09-14T08:00:16.545Z,98133.13
2022-09-14T08:02:50.043Z,98140.25
2022-09-14T08:05:25.414Z,98137.75
2022-09-14T08:07:57.272Z,98133.22
2022-09-14T08:10:29.790Z,98135.50
2022-09-14T08:12:58.835Z,98126.13
2022-09-14T08:15:31.823Z,98137.06
2022-09-14T08:18:02.637Z,98140.03
2022-09-14T08:20:32.767Z,98129.47
2022-09-14T08:23:02.563Z,98122.00
2022-09-14T08:25:31.904Z,98121.44
2022-09-14T08:28:00.602Z,98122.94
2022-09-14T08:30:28.698Z,98134.84
2022-09-14T08:33:01.264Z,98119.34
2022-09-14T08:35:56.368Z,98130.44
2022-09-14T08:38:20.704Z,98120.19
2022-09-14T08:40:53.746Z,98127.44
2022-09-14T08:43:26.203Z,98135.00
2022-09-14T08:46:03.388Z,98131.59
2022-09-14T08:48:39.863Z,98126.31
2022-09-14T08:51:09.853Z,98131.84
2022-09-14T08:53:42.331Z,98127.63
2022-09-14T08:56:16.920Z,98125.16
2022-09-14T08:59:09.870Z,98132.13
2022-09-14T09:01:50.027Z,98125.91
2022-09-14T09:04:38.411Z,98122.72
2022-09-14T09:07:17.918Z,98122.00
2022-09-14T09:09:50.813Z,98132.03
2022-09-14T09:12:23.609Z,98132.22
2022-09-14T09:14:56.497Z,98127.91
2022-09-14T09:17:31.617Z,98138.13
2022-09-14T09:20:08.835Z,98147.84
2022-09-14T09:22:43.065Z,98155.16
2022-09-14T09:25:19.025Z,98156.28
2022-09-14T09:27:47.787Z,98161.28
2022-09-14T09:30:17.051Z,98141.19
2022-09-14T09:32:47.902Z,98130.63
2022-09-14T09:35:21.487Z,98134.38
2022-09-14T09:37:51.487Z,98137.13
2022-09-14T09:40:34.414Z,98127.94
2022-09-14T09:43:13.309Z,98127.59
2022-09-14T09:45:52.881Z,98135.97
2022-09-14T09:48:23.980Z,98148.03
2022-09-14T09:51:08.406Z,98148.19
2022-09-14T09:53:41.465Z,98152.00
2022-09-14T09:56:18.052Z,98160.44
2022-09-14T09:58:51.733Z,98163.34
2022-09-14T10:01:28.122Z,98149.44
2022-09-14T10:04:06.540Z,98162.84
2022-09-14T10:06:44.832Z,98167.09
2022-09-14T10:09:20.604Z,98153.88
2022-09-14T10:11:50.762Z,98145.25
2022-09-14T10:14:26.087Z,98137.50
2022-09-14T10:17:02.111Z,98134.78
2022-09-14T10:19:31.525Z,98132.16
2022-09-14T10:22:28.448Z,98129.56
2022-09-14T10:25:02.474Z,98126.88
2022-09-14T10:27:44.229Z,98114.53
2022-09-14T10:30:17.510Z,98111.03
2022-09-14T10:32:54.467Z,98102.91
2022-09-14T10:35:25.408Z,98086.25
2022-09-14T10:38:10.519Z,98085.13
2022-09-14T10:40:45.405Z,98078.53
2022-09-14T10:43:18.542Z,98079.06
2022-09-14T10:45:53.051Z,98077.69
2022-09-14T10:48:37.789Z,98077.19
2022-09-14T10:51:30.538Z,98078.56
2022-09-14T10:54:10.042Z,98064.78
2022-09-14T10:56:59.888Z,98063.09
2022-09-14T10:59:33.992Z,98058.91
2022-09-14T11:02:22.080Z,98054.88
2022-09-14T11:05:05.091Z,98053.59
2022-09-14T11:07:40.308Z,98046.84
2022-09-14T11:10:21.606Z,98055.38
2022-09-14T11:13:18.545Z,98041.41
2022-09-14T11:15:59.168Z,98041.97
2022-09-14T11:18:35.337Z,98036.94
2022-09-14T11:21:13.704Z,98048.34
2022-09-14T11:23:49.960Z,98045.72
2022-09-14T11:26:31.749Z,98062.41
2022-09-14T11:29:13.532Z,98049.44
2022-09-14T11:32:16.929Z,98044.19
2022-09-14T11:34:47.683Z,98047.31
2022-09-14T11:37:18.651Z,98043.38
2022-09-14T11:39:57.211Z,98051.31
2022-09-14T11:42:30.947Z,98058.53
2022-09-14T11:45:06.858Z,98047.38
2022-09-14T11:47:45.373Z,98057.09
2022-09-14T11:50:21.411Z,98070.09
2022-09-14T11:52:54.242Z,98067.94
2022-09-14T11:55:23.429Z,98065.34
2022-09-14T11:57:54.106Z,98058.41
2022-09-14T12:01:02.220Z,98053.09
2022-09-14T12:03:55.009Z,98055.81
2022-09-14T12:06:54.150Z,98059.47
2022-09-14T12:09:55.083Z,98051.09
2022-09-14T12:12:39.033Z,98057.47
2022-09-14T12:15:33.761Z,98058.03
2022-09-14T12:18:26.378Z,98060.00
2022-09-14T12:21:09.821Z,98055.19
2022-09-14T12:23:48.368Z,98063.03
2022-09-14T12:26:38.000Z,98059.84
2022-09-14T12:29:30.669Z,98065.47
2022-09-14T12:32:26.707Z,98053.38
2022-09-14T12:35:32.405Z,98052.13
2022-09-14T12:38:22.532Z,98064.78
2022-09-14T12:40:52.241Z,98052.94
2022-09-14T12:43:56.422Z,98047.44
2022-09-14T12:46:40.482Z,98042.13
2022-09-14T12:49:39.120Z,98037.59
2022-09-14T12:52:23.299Z,98036.56
2022-09-14T12:55:07.562Z,98031.56
2022-09-14T12:57:50.824Z,98020.78
2022-09-14T13:00:22.782Z,98021.47
2022-09-14T13:03:21.958Z,98028.97
2022-09-14T13:05:51.286Z,98015.44
2022-09-14T13:08:24.618Z,98016.56
2022-09-14T13:10:53.855Z,98016.47
2022-09-14T13:13:28.479Z,98011.00
2022-09-14T13:16:01.039Z,98008.19
2022-09-14T13:18:33.874Z,97998.09
2022-09-14T13:21:04.975Z,97997.78
2022-09-14T13:23:38.491Z,97987.13
2022-09-14T13:26:12.748Z,97983.84
2022-09-14T13:28:47.331Z,97977.50
2022-09-14T13:31:21.125Z,97978.09
2022-09-14T13:33:51.957Z,97970.47
2022-09-14T13:36:26.701Z,97966.00
2022-09-14T13:38:57.060Z,97970.13
2022-09-14T13:41:25.672Z,97962.16
2022-09-14T13:43:57.326Z,97958.53
2022-09-14T13:46:28.188Z,97959.63
2022-09-14T13:48:57.328Z,97969.34
2022-09-14T13:51:27.353Z,97958.25
2022-09-14T13:53:57.927Z,97952.63
2022-09-14T13:56:31.585Z,97949.88
2022-09-14T13:59:31.479Z,97958.13
2022-09-14T14:02:03.371Z,97965.16
2022-09-14T14:04:36.669Z,97957.66
2022-09-14T14:07:19.507Z,97957.09
2022-09-14T14:09:52.199Z,97954.22
2022-09-14T14:12:26.455Z,97961.66
2022-09-14T14:15:01.060Z,97959.38
2022-09-14T14:17:36.899Z,97956.56
2022-09-14T14:20:32.749Z,97958.88
2022-09-14T14:23:04.245Z,97978.81
2022-09-14T14:25:34.517Z,97975.84
2022-09-14T14:28:04.389Z,97965.72
2022-09-14T14:30:43.492Z,97967.03
2022-09-14T14:33:13.990Z,97965.91
2022-09-14T14:35:43.142Z,97971.78
2022-09-14T14:38:14.843Z,97973.53
2022-09-14T14:40:44.464Z,97970.00
2022-09-14T14:43:18.874Z,97959.25
2022-09-14T14:45:49.257Z,97973.59
2022-09-14T14:48:19.034Z,97974.09
2022-09-14T14:50:50.204Z,97965.56
2022-09-14T14:53:18.557Z,97969.47
2022-09-14T14:55:51.287Z,97960.00
2022-09-14T14:58:22.839Z,97954.34
2022-09-14T15:00:56.406Z,97956.09
2022-09-14T15:03:25.074Z,97962.25
2022-09-14T15:05:56.130Z,97950.38
2022-09-14T15:08:28.527Z,97964.00
2022-09-14T15:10:57.611Z,97958.69
2022-09-14T15:13:28.707Z,97959.66
2022-09-14T15:16:30.011Z,97946.03
2022-09-14T15:19:21.434Z,97932.13
2022-09-14T15:22:03.138Z,97934.38
2022-09-14T15:24:40.800Z,97942.00
2022-09-14T15:27:11.504Z,97941.31
2022-09-14T15:29:44.609Z,97927.88
2022-09-14T15:32:18.965Z,97934.28
2022-09-14T15:34:50.167Z,97928.59
2022-09-14T15:37:23.405Z,97929.69
2022-09-14T15:39:52.578Z,97928.38
2022-09-14T15:42:22.392Z,97918.41
2022-09-14T15:44:51.787Z,97908.84
2022-09-14T15:47:21.609Z,97907.34
2022-09-14T15:49:53.009Z,97901.06
2022-09-14T15:52:21.657Z,97913.44
2022-09-14T15:54:49.911Z,97907.66
2022-09-14T15:57:18.523Z,97912.75
2022-09-14T15:59:48.104Z,97914.09
2022-09-14T16:02:17.445Z,97919.22
2022-09-14T16:04:47.712Z,97906.63
2022-09-14T16:07:16.622Z,97902.28
2022-09-14T16:09:45.611Z,97899.78
2022-09-14T16:12:14.603Z,97907.66
2022-09-14T16:14:42.911Z,97903.50
2022-09-14T16:17:11.783Z,97911.47
2022-09-14T16:19:40.403Z,97924.72
2022-09-14T16:22:12.553Z,97929.16
2022-09-14T16:24:41.972Z,97939.63
2022-09-14T16:27:13.009Z,97938.44
2022-09-14T16:29:41.349Z,97934.34
2022-09-14T16:32:09.583Z,97948.91
2022-09-14T16:34:38.838Z,97938.34
2022-09-14T16:37:07.592Z,97940.66
2022-09-14T16:39:39.999Z,97938.06
2022-09-14T16:42:09.225Z,97935.53
2022-09-14T16:44:37.552Z,97924.81
2022-09-14T16:47:06.360Z,97914.63
2022-09-14T16:49:37.372Z,97922.81
2022-09-14T16:52:05.797Z,97916.59
2022-09-14T16:54:34.372Z,97924.47
2022-09-14T16:57:04.812Z,97930.34
2022-09-14T16:59:33.107Z,97930.34
2022-09-14T17:02:02.873Z,97930.72
2022-09-14T17:04:31.705Z,97928.94
2022-09-14T17:07:00.680Z,97923.50
2022-09-14T17:09:31.785Z,97919.31
2022-09-14T17:12:00.390Z,97926.91
2022-09-14T17:14:38.160Z,97935.03
2022-09-14T17:17:07.150Z,97930.75
2022-09-14T17:19:39.434Z,97936.13
2022-09-14T17:22:10.720Z,97933.44
2022-09-14T17:24:40.655Z,97942.78
2022-09-14T17:27:09.759Z,97946.25
2022-09-14T17:29:40.929Z,97949.06
2022-09-14T17:32:14.681Z,97942.16
2022-09-14T17:34:43.417Z,97941.66
2022-09-14T17:37:12.569Z,97935.13
2022-09-14T17:39:44.137Z,97931.53
2022-09-14T17:42:12.762Z,97929.47
2022-09-14T17:44:44.928Z,97926.34
2022-09-14T17:47:15.386Z,97920.25
2022-09-14T17:49:44.326Z,97931.56
2022-09-14T17:52:13.245Z,97937.66
2022-09-14T17:54:43.085Z,97930.34
2022-09-14T17:57:13.640Z,97943.94
2022-09-14T17:59:44.232Z,97952.50
2022-09-14T18:02:14.590Z,97959.06
2022-09-14T18:04:48.461Z,97964.44
2022-09-14T18:07:19.595Z,97968.94
2022-09-14T18:09:48.083Z,97972.38
2022-09-14T18:12:21.154Z,97968.81
2022-09-14T18:14:51.664Z,97970.66
2022-09-14T18:17:20.606Z,97973.84
2022-09-14T18:19:55.444Z,97979.88
2022-09-14T18:22:25.861Z,97969.66
2022-09-14T18:24:54.304Z,97963.91
2022-09-14T18:27:24.186Z,97959.94
2022-09-14T18:29:59.289Z,97967.31
2022-09-14T18:32:30.125Z,97971.97
2022-09-14T18:34:58.716Z,97974.53
2022-09-14T18:37:27.219Z,97979.31
2022-09-14T18:39:57.203Z,97979.66
2022-09-14T18:42:25.470Z,97981.94
2022-09-14T18:44:56.529Z,97986.38
2022-09-14T18:47:25.772Z,97982.59
2022-09-14T18:49:54.858Z,97982.41
2022-09-14T18:52:25.737Z,97992.94
2022-09-14T18:54:54.356Z,97990.63
2022-09-14T18:57:24.940Z,97996.38
2022-09-14T18:59:59.603Z,97995.66
2022-09-14T19:02:28.448Z,97997.94
2022-09-14T19:04:57.740Z,98002.97
2022-09-14T19:07:27.074Z,98014.03
2022-09-14T19:09:57.164Z,98024.72
2022-09-14T19:12:25.754Z,98035.75
2022-09-14T19:14:55.906Z,98037.41
2022-09-14T19:17:24.842Z,98037.44
2022-09-14T19:19:53.526Z,98057.69
2022-09-14T19:22:21.797Z,98057.19
2022-09-14T19:24:50.250Z,98056.00
2022-09-14T19:27:19.958Z,98060.19
2022-09-14T19:29:50.221Z,98065.03
2022-09-14T19:32:21.247Z,98059.88
2022-09-14T19:34:50.754Z,98068.03
2022-09-14T19:37:20.988Z,98068.38
2022-09-14T19:39:49.510Z,98061.84
2022-09-14T19:42:20.794Z,98072.56
2022-09-14T19:44:55.733Z,98067.22
2022-09-14T19:47:31.079Z,98060.69
2022-09-14T19:50:06.167Z,98056.53
2022-09-14T19:52:34.577Z,98058.69
2022-09-14T19:55:04.860Z,98059.03
2022-09-14T19:57:35.303Z,98077.41
2022-09-14T20:00:04.600Z,98070.72
2022-09-14T20:02:40.648Z,98070.22
2022-09-14T20:05:10.841Z,98072.41
2022-09-14T20:07:39.881Z,98062.03
2022-09-14T20:10:10.165Z,98063.38
2022-09-14T20:12:38.561Z,98067.22
2022-09-14T20:15:08.186Z,98070.72
2022-09-14T20:17:38.834Z,98056.50
2022-09-14T20:20:08.714Z,98063.53
2022-09-14T20:22:37.713Z,98069.06
2022-09-14T20:25:07.115Z,98074.56
2022-09-14T20:27:35.832Z,98073.56
2022-09-14T20:30:04.601Z,98068.91
2022-09-14T20:32:34.165Z,98071.75
2022-09-14T20:35:06.993Z,98072.06
2022-09-14T20:37:35.719Z,98067.91
2022-09-14T20:40:03.988Z,98056.69
2022-09-14T20:42:32.501Z,98047.81
2022-09-14T20:45:01.241Z,98045.31
2022-09-14T20:47:31.817Z,98044.66
2022-09-14T20:50:03.775Z,98046.66
2022-09-14T20:52:35.949Z,98053.66
2022-09-14T20:55:06.407Z,98046.13
2022-09-14T20:57:34.988Z,98043.47
2022-09-14T21:00:03.634Z,98053.50
2022-09-14T21:02:34.741Z,98046.16
2022-09-14T21:05:04.371Z,98051.31
2022-09-14T21:07:33.579Z,98054.69
2022-09-14T21:10:03.999Z,98050.50
2022-09-14T21:12:32.373Z,98058.03
2022-09-14T21:15:00.669Z,98052.31
2022-09-14T21:17:32.156Z,98057.19
2022-09-14T21:20:00.815Z,98054.53
2022-09-14T21:22:29.198Z,98043.97
2022-09-14T21:24:58.354Z,98039.97
2022-09-14T21:27:28.602Z,98044.13
2022-09-14T21:29:56.951Z,98040.63
2022-09-14T21:32:25.498Z,98057.34
2022-09-14T21:34:54.496Z,98051.47
2022-09-14T21:37:26.746Z,98054.69
2022-09-14T21:39:55.951Z,98048.16
2022-09-14T21:42:25.611Z,98048.66
2022-09-14T21:44:56.992Z,98052.00
2022-09-14T21:47:26.927Z,98053.00
2022-09-14T21:50:03.719Z,98057.69
2022-09-14T21:52:32.991Z,98060.88
2022-09-14T21:55:02.612Z,98068.56
2022-09-14T21:57:31.043Z,98078.06
2022-09-14T22:00:03.582Z,98063.03
2022-09-14T22:02:32.269Z,98066.53
2022-09-14T22:05:00.523Z,98062.34
2022-09-14T22:07:29.274Z,98062.25
2022-09-14T22:09:58.004Z,98064.63
2022-09-14T22:12:26.386Z,98065.03
2022-09-14T22:14:55.053Z,98068.91
2022-09-14T22:17:36.717Z,98071.91
2022-09-14T22:20:05.542Z,98068.91
2022-09-14T22:22:34.558Z,98068.41
2022-09-14T22:25:03.283Z,98075.06
2022-09-14T22:27:32.147Z,98068.41
2022-09-14T22:30:00.589Z,98063.72
2022-09-14T22:32:32.490Z,98061.03
2022-09-14T22:35:00.946Z,98061.34
2022-09-14T22:37:31.244Z,98069.72
2022-09-14T22:40:00.208Z,98060.03
2022-09-14T22:42:29.776Z,98071.38
2022-09-14T22:44:58.319Z,98059.38
2022-09-14T22:47:26.597Z,98053.19
2022-09-14T22:49:56.505Z,98059.69
2022-09-14T22:52:26.826Z,98058.84
2022-09-14T22:54:55.008Z,98071.56
2022-09-14T22:57:24.405Z,98068.25
2022-09-14T22:59:52.588Z,98059.88
2022-09-14T23:02:20.921Z,98068.25
2022-09-14T23:04:50.535Z,98070.22
2022-09-14T23:07:20.461Z,98054.66
2022-09-14T23:09:49.080Z,98055.66
2022-09-14T23:12:22.511Z,98057.69
2022-09-14T23:14:53.473Z,98059.53
2022-09-14T23:17:24.212Z,98060.69
2022-09-14T23:19:54.733Z,98072.22
2022-09-14T23:22:24.940Z,98066.22
2022-09-14T23:24:54.377Z,98062.19
2022-09-14T23:27:23.371Z,98060.03
2022-09-14T23:29:51.589Z,98062.88
2022-09-14T23:32:21.253Z,98069.25
2022-09-14T23:34:49.978Z,98072.75
2022-09-14T23:37:18.270Z,98073.75
2022-09-14T23:39:52.843Z,98074.22
2022-09-14T23:42:22.697Z,98073.03
2022-09-14T23:44:51.818Z,98074.03
2022-09-14T23:47:22.717Z,98074.91
2022-09-14T23:49:51.559Z,98081.75
2022-09-14T23:52:20.295Z,98076.72
2022-09-14T23:54:49.585Z,98077.25
2022-09-14T23:57:21.988Z,98077.25
2022-09-14T23:59:50.480Z,98076.25
